DeWitt, Michigan
Current Conditions -  °F | °C
As of 1:53 AM on Thursday 27 Nov 2014 (Local Time) from KLAN Reporting Station
Overcast Overcast  
Wind Chill: 27°   Ceiling: 4200
Heat Index: 27°   Visibility: 7mi
Dew Point: 23°   Wind: 3mph
Humidity: 85%   Direction: 290°WNW
Pressure: 30.12"   Gusts: NA
Location:  42.84°N, 84.57°W
Report Text: KLAN 270653Z 29003KT 7SM OVC042 M03/M05 A3012 RMK AO2 SLP211 T10281050
Loading
Personal Weather Stations






























Interactive Weather Map New forecast layout! Learn more

10-Day Weather Forecast

Advertisements
Track Severe Weather on mobile